Time;durP1;ratioP1;P1;durP2;ratioP2;P2;SDS_P1;SDS_P2;PMS_P1;PMS_P2;Temp;Humidity;BMP_temperature;BMP_pressure;BME280_temperature;BME280_humidity;BME280_pressure;Samples;Min_cycle;Max_cycle;Signal;HPM_P1;HPM_P2
2022/07/31 00:00:15;;;;;;;7.50;4.07;;;19.50;99.90;;;;;;3058265;19;20413;-68
2022/07/31 00:01:19;;;;;;;;;;;19.30;99.90;;;;;;3058744;19;20015;-68
2022/07/31 00:02:20;;;;;;;8.93;3.60;;;19.40;99.90;;;;;;3058408;19;19918;-67
2022/07/31 00:03:24;;;;;;;5.95;4.03;;;19.50;99.90;;;;;;3058103;19;20094;-68
2022/07/31 00:04:27;;;;;;;5.25;4.03;;;19.50;99.90;;;;;;3058430;19;20010;-67
2022/07/31 00:05:31;;;;;;;5.68;3.67;;;19.40;99.90;;;;;;3058143;19;20015;-68
2022/07/31 00:06:35;;;;;;;7.05;4.00;;;19.30;99.90;;;;;;3058178;19;20026;-68
2022/07/31 00:07:38;;;;;;;5.32;3.60;;;19.40;99.90;;;;;;3058146;19;20011;-68
2022/07/31 00:08:40;;;;;;;6.75;3.80;;;19.50;99.90;;;;;;3058299;19;20006;-68
2022/07/31 00:09:44;;;;;;;7.07;3.80;;;19.40;99.90;;;;;;3057945;19;20463;-68
2022/07/31 00:10:46;;;;;;;5.25;3.97;;;19.50;99.90;;;;;;3058381;19;19995;-68
2022/07/31 00:11:50;;;;;;;4.43;4.03;;;19.50;99.90;;;;;;3057954;19;20031;-69
2022/07/31 00:12:51;;;;;;;8.15;4.18;;;19.30;99.90;;;;;;3058486;19;20007;-68
2022/07/31 00:13:55;;;;;;;5.57;4.25;;;19.60;99.90;;;;;;3057172;19;20014;-68
2022/07/31 00:14:56;;;;;;;6.45;4.25;;;19.60;99.90;;;;;;3058216;19;20366;-67
2022/07/31 00:16:00;;;;;;;6.82;4.30;;;19.40;99.90;;;;;;3057773;19;20014;-68
2022/07/31 00:17:01;;;;;;;6.15;3.92;;;19.50;99.90;;;;;;3056789;19;20025;-67
2022/07/31 00:18:07;;;;;;;6.97;4.10;;;19.40;99.90;;;;;;3057160;19;20370;-67
2022/07/31 00:19:08;;;;;;;7.90;4.47;;;19.50;99.90;;;;;;3058264;19;20010;-68
2022/07/31 00:20:16;;;;;;;7.25;3.67;;;19.50;99.90;;;;;;3057743;19;20021;-68
2022/07/31 00:21:18;;;;;;;7.00;4.00;;;19.40;99.90;;;;;;3058432;19;20025;-68
2022/07/31 00:22:24;;;;;;;8.60;4.10;;;19.40;99.90;;;;;;3057907;19;20010;-68
2022/07/31 00:23:25;;;;;;;6.75;4.47;;;19.20;99.90;;;;;;3058049;19;20018;-68
2022/07/31 00:24:29;;;;;;;15.30;4.30;;;19.40;99.90;;;;;;3057236;19;20011;-67
2022/07/31 00:25:31;;;;;;;7.13;4.00;;;19.30;99.90;;;;;;3058108;19;19998;-68
2022/07/31 00:26:35;;;;;;;7.60;3.95;;;19.40;99.90;;;;;;3058089;19;20010;-68
2022/07/31 00:27:36;;;;;;;10.35;4.13;;;19.30;99.90;;;;;;3057901;19;20022;-68
2022/07/31 00:28:40;;;;;;;7.15;3.80;;;19.30;99.90;;;;;;3057757;19;20078;-68
2022/07/31 00:29:41;;;;;;;7.43;3.83;;;19.30;99.90;;;;;;3058042;19;20541;-68
2022/07/31 00:30:45;;;;;;;5.90;4.28;;;19.50;99.90;;;;;;3057617;19;20014;-68
2022/07/31 00:31:49;;;;;;;6.13;3.90;;;19.20;99.90;;;;;;3058186;19;20011;-68
2022/07/31 00:32:51;;;;;;;4.82;3.53;;;19.40;99.90;;;;;;3057673;19;20018;-68
2022/07/31 00:33:55;;;;;;;9.35;3.67;;;19.40;99.90;;;;;;3056384;19;20356;-68
2022/07/31 00:34:56;;;;;;;6.53;3.70;;;19.20;99.90;;;;;;3057646;19;20015;-68
2022/07/31 00:36:00;;;;;;;7.50;3.90;;;19.30;99.90;;;;;;3058049;19;20018;-67
2022/07/31 00:37:01;;;;;;;6.90;4.00;;;19.40;99.90;;;;;;3057727;19;20433;-68
2022/07/31 00:38:09;;;;;;;6.00;3.80;;;19.40;99.90;;;;;;3057913;19;20011;-67
2022/07/31 00:39:11;;;;;;;6.85;3.90;;;19.40;99.90;;;;;;3057820;19;20014;-67
2022/07/31 00:40:16;;;;;;;7.00;4.13;;;19.20;99.90;;;;;;3058046;19;20014;-67
2022/07/31 00:41:18;;;;;;;8.02;4.10;;;19.20;99.90;;;;;;3057673;19;20484;-66
2022/07/31 00:42:23;;;;;;;5.13;3.63;;;19.30;99.90;;;;;;3057330;19;20578;-67
2022/07/31 00:43:25;;;;;;;7.57;3.80;;;19.20;99.90;;;;;;3057816;19;20014;-67
2022/07/31 00:44:28;;;;;;;5.80;4.00;;;19.30;99.90;;;;;;3058063;19;20081;-67
2022/07/31 00:45:30;;;;;;;4.80;3.85;;;19.30;99.90;;;;;;3057550;19;20010;-68
2022/07/31 00:46:34;;;;;;;8.27;3.80;;;19.40;99.90;;;;;;3057861;19;20035;-67
2022/07/31 00:47:35;;;;;;;5.05;3.85;;;19.40;99.90;;;;;;3057477;19;20483;-67
2022/07/31 00:48:39;;;;;;;8.93;4.03;;;19.30;99.90;;;;;;3057685;19;20009;-67
2022/07/31 00:49:40;;;;;;;5.88;4.18;;;19.30;99.90;;;;;;3057493;19;20090;-67
2022/07/31 00:50:44;;;;;;;5.90;4.05;;;19.20;99.90;;;;;;3057929;19;20018;-67
2022/07/31 00:51:45;;;;;;;6.32;4.18;;;19.20;99.90;;;;;;3057434;19;20014;-67
2022/07/31 00:52:50;;;;;;;7.47;3.63;;;19.40;99.90;;;;;;3057695;19;20082;-67
2022/07/31 00:53:54;;;;;;;5.07;4.10;;;19.30;99.90;;;;;;3056843;19;20380;-67
2022/07/31 00:54:58;;;;;;;6.68;4.30;;;19.30;99.90;;;;;;3057327;19;20017;-68
2022/07/31 00:56:00;;;;;;;6.57;4.32;;;19.10;99.90;;;;;;3057253;19;20035;-68
2022/07/31 00:57:04;;;;;;;8.80;4.90;;;19.20;99.90;;;;;;3057588;19;20046;-67
2022/07/31 00:58:06;;;;;;;6.28;3.92;;;19.30;99.90;;;;;;3057333;19;20007;-67
2022/07/31 00:59:10;;;;;;;6.07;4.00;;;19.40;99.90;;;;;;3057754;19;20023;-67
2022/07/31 01:00:14;;;;;;;6.57;3.97;;;19.20;99.90;;;;;;3057528;19;20010;-67
2022/07/31 01:01:18;;;;;;;5.50;4.40;;;19.00;99.90;;;;;;3057497;19;20009;-68
2022/07/31 01:02:19;;;;;;;6.40;3.80;;;19.10;99.90;;;;;;3057489;19;20418;-68
2022/07/31 01:03:23;;;;;;;5.97;4.13;;;19.30;99.90;;;;;;3057788;19;20032;-67
2022/07/31 01:04:25;;;;;;;7.78;4.65;;;19.20;99.90;;;;;;3057501;19;20038;-67
2022/07/31 01:05:29;;;;;;;6.38;4.38;;;19.00;99.90;;;;;;3057856;19;20006;-67
2022/07/31 01:06:30;;;;;;;7.45;4.50;;;19.20;99.90;;;;;;3057379;19;20007;-67
2022/07/31 01:07:34;;;;;;;5.28;4.07;;;19.10;99.90;;;;;;3057550;19;20015;-68
2022/07/31 01:08:35;;;;;;;6.03;4.40;;;19.00;99.90;;;;;;3057288;19;20461;-68
2022/07/31 01:09:43;;;;;;;6.53;4.38;;;19.00;99.90;;;;;;3057722;19;20066;-67
2022/07/31 01:10:52;;;;;;;6.53;4.28;;;19.10;99.90;;;;;;3057347;19;20021;-67
2022/07/31 01:12:02;;;;;;;7.82;4.03;;;19.00;99.90;;;;;;3057524;19;20042;-67
2022/07/31 01:13:10;;;;;;;9.18;4.38;;;19.10;99.90;;;;;;3057402;19;20019;-67
2022/07/31 01:14:14;;;;;;;6.75;4.00;;;19.10;99.90;;;;;;3056932;19;20010;-67
2022/07/31 01:15:17;;;;;;;6.25;3.70;;;19.10;99.90;;;;;;3057538;19;20081;-67
2022/07/31 01:16:21;;;;;;;6.30;3.88;;;19.00;99.90;;;;;;3057322;19;20044;-67
2022/07/31 01:17:25;;;;;;;6.15;3.78;;;19.10;99.90;;;;;;3057935;19;20015;-67
2022/07/31 01:18:32;;;;;;;5.43;3.85;;;19.10;99.90;;;;;;3057441;19;20018;-68
2022/07/31 01:19:40;;;;;;;7.55;4.00;;;19.20;99.90;;;;;;3057694;19;20336;-68
2022/07/31 01:20:46;;;;;;;5.70;4.10;;;19.10;99.90;;;;;;3057115;19;20019;-68
2022/07/31 01:21:57;;;;;;;6.70;3.70;;;19.20;99.90;;;;;;3057616;19;20014;-68
2022/07/31 01:23:24;;;;;;;5.17;3.93;;;19.00;99.90;;;;;;3056977;19;20512;-68
2022/07/31 01:24:47;;;;;;;5.72;4.10;;;19.00;99.90;;;;;;3056684;19;20586;-67
2022/07/31 01:26:02;;;;;;;7.68;4.03;;;19.00;99.90;;;;;;3057163;19;19998;-68
2022/07/31 01:27:12;;;;;;;5.80;4.13;;;19.00;99.90;;;;;;3057289;19;20014;-68
2022/07/31 01:28:26;;;;;;;5.28;3.80;;;19.00;99.90;;;;;;3057279;19;20030;-67
2022/07/31 01:29:34;;;;;;;5.72;4.05;;;19.20;99.90;;;;;;3056968;19;20014;-67
2022/07/31 01:30:42;;;;;;;8.38;3.85;;;19.10;99.90;;;;;;3057453;19;20035;-68
2022/07/31 01:31:49;;;;;;;5.57;3.88;;;19.20;99.90;;;;;;3057349;19;20007;-68
2022/07/31 01:32:52;;;;;;;4.55;3.90;;;19.00;99.90;;;;;;3057141;19;19999;-68
2022/07/31 01:34:03;;;;;;;6.40;4.00;;;18.90;99.90;;;;;;3056799;19;20077;-67
2022/07/31 01:35:09;;;;;;;6.35;3.83;;;19.20;99.90;;;;;;3057014;19;20371;-67
2022/07/31 01:36:19;;;;;;;7.60;4.28;;;19.00;99.90;;;;;;3057523;19;20017;-68
2022/07/31 01:37:28;;;;;;;7.07;4.18;;;19.10;99.90;;;;;;3057241;19;20014;-67
2022/07/31 01:38:34;;;;;;;5.75;3.65;;;19.10;99.90;;;;;;3057302;19;20006;-68
2022/07/31 01:39:39;;;;;;;5.85;3.85;;;19.20;99.90;;;;;;3056891;19;20107;-67
2022/07/31 01:40:43;;;;;;;6.53;4.10;;;18.90;99.90;;;;;;3057140;19;20019;-68
2022/07/31 01:41:51;;;;;;;6.93;3.83;;;18.90;99.90;;;;;;3056771;19;20025;-67
2022/07/31 01:43:01;;;;;;;6.05;4.00;;;18.90;99.90;;;;;;3057228;19;20017;-67
2022/07/31 01:44:07;;;;;;;6.53;3.78;;;19.10;99.90;;;;;;3056864;19;20015;-68
2022/07/31 01:45:15;;;;;;;5.53;3.47;;;19.00;99.90;;;;;;3057083;19;20457;-68
2022/07/31 01:46:19;;;;;;;5.43;3.85;;;18.90;99.90;;;;;;3059214;19;20471;-68
2022/07/31 01:47:24;;;;;;;4.82;3.70;;;18.90;99.90;;;;;;3060137;19;20007;-68
2022/07/31 01:48:26;;;;;;;4.75;3.97;;;18.90;99.90;;;;;;3060026;19;20011;-67
2022/07/31 01:49:31;;;;;;;5.95;3.90;;;18.90;99.90;;;;;;3060026;19;19998;-67
2022/07/31 01:50:35;;;;;;;7.32;4.80;;;19.10;99.90;;;;;;3060281;19;20029;-68
2022/07/31 01:51:41;;;;;;;8.07;4.20;;;19.00;99.90;;;;;;3059780;19;20002;-67
2022/07/31 01:52:43;;;;;;;5.25;4.00;;;18.70;99.90;;;;;;3060522;19;20014;-68
2022/07/31 01:53:49;;;;;;;5.90;4.18;;;19.10;99.90;;;;;;3059664;19;20409;-67
2022/07/31 01:54:52;;;;;;;8.60;4.32;;;18.90;99.90;;;;;;3059590;19;20010;-68
2022/07/31 01:55:58;;;;;;;6.05;4.30;;;19.00;99.90;;;;;;3059674;19;20026;-68
2022/07/31 01:57:02;;;;;;;4.93;4.07;;;18.90;99.90;;;;;;3059953;19;20087;-67
2022/07/31 01:58:07;;;;;;;6.00;4.35;;;18.90;99.90;;;;;;3059964;19;20030;-67
2022/07/31 01:59:10;;;;;;;5.03;4.22;;;18.70;99.90;;;;;;3059927;19;20314;-68
2022/07/31 02:00:17;;;;;;;9.18;5.00;;;18.80;99.90;;;;;;3059936;19;20042;-67
2022/07/31 02:01:21;;;;;;;8.38;4.80;;;18.90;99.90;;;;;;3060081;19;20010;-68
2022/07/31 02:02:27;;;;;;;6.78;4.22;;;18.70;99.90;;;;;;3059671;19;20007;-68
2022/07/31 02:03:30;;;;;;;4.68;4.00;;;18.60;99.90;;;;;;3059858;19;20337;-68
2022/07/31 02:04:36;;;;;;;7.80;4.32;;;18.70;99.90;;;;;;3059870;19;20014;-67
2022/07/31 02:05:40;;;;;;;6.68;4.95;;;18.60;99.90;;;;;;3059964;19;20299;-67
2022/07/31 02:06:47;;;;;;;7.25;4.60;;;18.80;99.90;;;;;;3059695;19;20039;-67
2022/07/31 02:07:51;;;;;;;7.00;4.93;;;18.80;99.90;;;;;;3060175;19;20007;-67
2022/07/31 02:08:56;;;;;;;5.90;4.82;;;18.70;99.90;;;;;;3059500;19;20010;-68
2022/07/31 02:10:00;;;;;;;6.22;5.05;;;18.50;99.90;;;;;;3059830;19;19999;-67
2022/07/31 02:11:02;;;;;;;7.07;5.13;;;18.60;99.90;;;;;;3059701;19;20024;-67
2022/07/31 02:12:08;;;;;;;7.95;4.90;;;18.60;99.90;;;;;;3059987;19;20069;-68
2022/07/31 02:13:10;;;;;;;7.95;5.15;;;18.70;99.90;;;;;;3059671;19;20094;-67
2022/07/31 02:14:15;;;;;;;7.15;5.40;;;18.60;99.90;;;;;;3059255;19;20030;-67
2022/07/31 02:15:21;;;;;;;6.45;5.00;;;18.70;99.90;;;;;;3059732;19;20028;-67
2022/07/31 02:16:26;;;;;;;7.50;4.90;;;18.40;99.90;;;;;;3059788;19;20011;-68
2022/07/31 02:17:27;;;;;;;8.63;5.60;;;18.60;99.90;;;;;;3058441;19;20500;-68
2022/07/31 02:18:32;;;;;;;6.90;5.13;;;18.40;99.90;;;;;;3059947;19;20010;-67
2022/07/31 02:19:35;;;;;;;7.05;4.88;;;18.50;99.90;;;;;;3059683;19;20492;-67
2022/07/31 02:20:40;;;;;;;10.73;5.18;;;18.60;99.90;;;;;;3059843;19;20013;-68
2022/07/31 02:21:44;;;;;;;6.25;4.93;;;18.30;99.90;;;;;;3059634;19;20042;-67
2022/07/31 02:22:45;;;;;;;7.03;4.80;;;18.50;99.90;;;;;;3059755;19;20454;-67
2022/07/31 02:23:49;;;;;;;11.98;4.85;;;18.40;99.90;;;;;;3059760;19;20017;-68
2022/07/31 02:24:51;;;;;;;7.03;4.40;;;18.40;99.90;;;;;;3059213;19;20003;-67
2022/07/31 02:25:56;;;;;;;12.70;5.00;;;18.30;99.90;;;;;;3059501;19;20002;-67
2022/07/31 02:27:00;;;;;;;7.70;4.97;;;18.40;99.90;;;;;;3059726;19;20459;-67
2022/07/31 02:28:05;;;;;;;6.05;4.53;;;18.50;99.90;;;;;;3059499;19;20010;-67
2022/07/31 02:29:12;;;;;;;9.88;5.30;;;18.30;99.90;;;;;;3059358;19;20015;-67
2022/07/31 02:30:15;;;;;;;6.30;4.90;;;18.30;99.90;;;;;;3059517;19;20087;-67
2022/07/31 02:31:24;;;;;;;7.75;4.78;;;18.40;99.90;;;;;;3059381;19;20476;-67
2022/07/31 02:32:25;;;;;;;6.38;4.68;;;18.50;99.90;;;;;;3059374;19;20004;-67
2022/07/31 02:33:30;;;;;;;;;;;18.40;99.90;;;;;;3059905;19;20018;-67
2022/07/31 02:34:33;;;;;;;7.05;5.10;;;18.60;99.90;;;;;;3058846;19;19926;-67
2022/07/31 02:35:38;;;;;;;5.82;4.65;;;18.50;99.90;;;;;;3059309;19;20095;-67
2022/07/31 02:36:39;;;;;;;6.28;4.93;;;18.40;99.90;;;;;;3059639;19;20023;-67
2022/07/31 02:37:44;;;;;;;5.32;4.30;;;18.30;99.90;;;;;;3059446;19;20413;-67
2022/07/31 02:38:47;;;;;;;5.65;4.38;;;18.30;99.90;;;;;;3059761;19;20015;-67
2022/07/31 02:39:52;;;;;;;9.18;4.65;;;18.40;99.90;;;;;;3059606;19;20006;-67
2022/07/31 02:40:56;;;;;;;6.88;4.10;;;18.30;99.90;;;;;;3059702;19;20378;-67
2022/07/31 02:42:01;;;;;;;5.85;4.18;;;18.50;99.90;;;;;;3059019;19;20019;-67
2022/07/31 02:43:03;;;;;;;6.82;4.35;;;18.40;99.90;;;;;;3059634;19;20027;-68
2022/07/31 02:44:07;;;;;;;5.55;4.10;;;18.60;99.90;;;;;;3059589;19;20059;-67
2022/07/31 02:45:09;;;;;;;8.18;4.20;;;18.30;99.90;;;;;;3059623;19;20018;-68
2022/07/31 02:46:14;;;;;;;10.50;4.50;;;18.40;99.90;;;;;;3059298;19;20274;-67
2022/07/31 02:47:19;;;;;;;6.18;4.63;;;18.50;99.90;;;;;;3059811;19;20006;-67
2022/07/31 02:48:24;;;;;;;5.75;4.40;;;18.40;99.90;;;;;;3059311;19;20013;-68
2022/07/31 02:49:26;;;;;;;6.63;4.32;;;18.50;99.90;;;;;;3059874;19;20027;-67
2022/07/31 02:50:30;;;;;;;5.40;4.30;;;18.50;99.90;;;;;;3059670;19;20011;-67
2022/07/31 02:51:33;;;;;;;7.80;4.90;;;18.60;99.90;;;;;;3059691;19;20027;-67
2022/07/31 02:52:37;;;;;;;7.70;4.05;;;18.40;99.90;;;;;;3059606;19;20081;-67
2022/07/31 02:53:39;;;;;;;7.32;4.30;;;18.40;99.90;;;;;;3059771;19;20007;-67
2022/07/31 02:54:44;;;;;;;7.18;4.30;;;18.40;99.90;;;;;;3058321;19;20031;-67
2022/07/31 02:55:46;;;;;;;8.82;4.82;;;18.60;99.90;;;;;;3059823;19;20020;-67
2022/07/31 02:56:50;;;;;;;7.88;4.72;;;18.30;99.90;;;;;;3060237;19;20029;-67
2022/07/31 02:57:51;;;;;;;7.13;4.55;;;18.40;99.90;;;;;;3061035;19;20017;-67
2022/07/31 02:58:55;;;;;;;9.25;4.40;;;18.50;99.90;;;;;;3060781;19;20506;-67
2022/07/31 02:59:57;;;;;;;5.00;4.18;;;18.50;99.90;;;;;;3060194;19;20002;-67
2022/07/31 03:01:02;;;;;;;7.95;4.10;;;18.40;99.90;;;;;;3059985;19;20070;-68
2022/07/31 03:02:04;;;;;;;7.57;4.57;;;17.80;99.90;;;;;;3059967;19;20014;-67
2022/07/31 03:03:11;;;;;;;6.38;4.50;;;18.40;99.90;;;;;;3059191;19;20066;-67
2022/07/31 03:04:12;;;;;;;7.03;4.53;;;18.40;99.90;;;;;;3059697;19;20023;-67
2022/07/31 03:05:16;;;;;;;6.07;4.03;;;18.40;99.90;;;;;;3059153;19;20090;-67
2022/07/31 03:06:18;;;;;;;6.93;4.65;;;18.40;99.90;;;;;;3059519;19;20035;-67
2022/07/31 03:07:22;;;;;;;6.53;4.18;;;18.30;99.90;;;;;;3059207;19;20014;-67
2022/07/31 03:08:23;;;;;;;8.00;4.70;;;18.30;99.90;;;;;;3059382;19;20010;-67
2022/07/31 03:09:29;;;;;;;5.40;4.03;;;18.30;99.90;;;;;;3059063;19;20011;-67
2022/07/31 03:10:30;;;;;;;6.70;4.30;;;18.30;99.90;;;;;;3059281;19;20006;-67
2022/07/31 03:11:34;;;;;;;5.18;4.03;;;18.20;99.90;;;;;;3058955;19;20014;-67
2022/07/31 03:12:39;;;;;;;11.70;4.50;;;18.30;99.90;;;;;;3059100;19;20042;-68
2022/07/31 03:13:45;;;;;;;8.75;4.63;;;18.30;99.90;;;;;;3058351;19;20374;-67
2022/07/31 03:14:46;;;;;;;5.75;4.03;;;18.30;99.90;;;;;;3059150;19;20043;-67
2022/07/31 03:15:52;;;;;;;7.60;4.35;;;18.20;99.90;;;;;;3059447;19;20011;-67
2022/07/31 03:16:54;;;;;;;9.77;4.25;;;18.30;99.90;;;;;;3058621;19;20010;-67
2022/07/31 03:17:58;;;;;;;8.02;4.00;;;18.20;99.90;;;;;;3059207;19;20472;-68
2022/07/31 03:19:03;;;;;;;5.65;4.50;;;18.20;99.90;;;;;;3058888;19;20373;-67
2022/07/31 03:20:09;;;;;;;5.32;4.20;;;18.20;99.90;;;;;;3059195;19;20006;-67
2022/07/31 03:21:11;;;;;;;4.47;3.97;;;18.20;99.90;;;;;;3058863;19;20362;-67
2022/07/31 03:22:15;;;;;;;6.95;4.00;;;18.20;99.90;;;;;;3058992;19;20002;-68
2022/07/31 03:23:19;;;;;;;5.18;4.18;;;18.20;99.90;;;;;;3058855;19;20011;-67
2022/07/31 03:24:23;;;;;;;7.20;4.20;;;18.20;99.90;;;;;;3058572;19;20014;-67
2022/07/31 03:25:25;;;;;;;5.10;4.22;;;18.10;99.90;;;;;;3058863;19;20452;-67
2022/07/31 03:26:30;;;;;;;6.85;3.80;;;18.00;99.90;;;;;;3058970;19;20086;-67
2022/07/31 03:27:31;;;;;;;6.80;4.53;;;18.20;99.90;;;;;;3058910;19;20030;-68
2022/07/31 03:28:36;;;;;;;6.13;4.50;;;18.20;99.90;;;;;;3059090;19;20472;-67
2022/07/31 03:29:38;;;;;;;7.22;4.32;;;18.10;99.90;;;;;;3058915;19;20015;-67
2022/07/31 03:30:41;;;;;;;;;;;18.00;99.90;;;;;;3059688;19;20328;-67
2022/07/31 03:31:43;;;;;;;5.53;4.40;;;18.10;99.90;;;;;;3058718;19;19915;-67
2022/07/31 03:32:47;;;;;;;6.15;4.15;;;18.00;99.90;;;;;;3059071;19;20011;-67
2022/07/31 03:33:51;;;;;;;7.47;4.20;;;18.00;99.90;;;;;;3058789;19;20307;-67
2022/07/31 03:34:54;;;;;;;5.28;3.78;;;18.00;99.90;;;;;;3058279;19;20507;-67
2022/07/31 03:35:59;;;;;;;5.63;4.10;;;18.10;99.90;;;;;;3058744;19;20006;-67
2022/07/31 03:37:03;;;;;;;7.90;4.65;;;17.90;99.90;;;;;;3058837;19;20352;-67
2022/07/31 03:38:04;;;;;;;6.05;4.07;;;17.90;99.90;;;;;;3058549;19;20010;-67
2022/07/31 03:39:08;;;;;;;5.10;3.80;;;17.90;99.90;;;;;;3058713;19;20086;-68
2022/07/31 03:40:10;;;;;;;4.68;3.97;;;18.10;99.90;;;;;;3058865;19;20014;-67
2022/07/31 03:41:14;;;;;;;6.00;3.90;;;18.10;99.90;;;;;;3059025;19;20015;-67
2022/07/31 03:42:17;;;;;;;6.93;4.18;;;18.00;99.90;;;;;;3057917;19;20385;-68
2022/07/31 03:43:22;;;;;;;6.65;4.28;;;18.10;99.90;;;;;;3058657;19;20389;-67
2022/07/31 03:44:24;;;;;;;6.30;3.92;;;18.00;99.90;;;;;;3058528;19;20083;-67
2022/07/31 03:45:30;;;;;;;5.15;4.10;;;17.80;99.90;;;;;;3058990;19;20455;-67
2022/07/31 03:46:31;;;;;;;5.40;4.18;;;18.10;99.90;;;;;;3058895;19;20492;-67
2022/07/31 03:47:35;;;;;;;6.00;4.13;;;18.00;99.90;;;;;;3058712;19;20007;-67
2022/07/31 03:48:37;;;;;;;6.45;4.35;;;18.00;99.90;;;;;;3058540;19;20030;-68
2022/07/31 03:49:41;;;;;;;5.00;4.47;;;17.90;99.90;;;;;;3058639;19;20025;-68
2022/07/31 03:50:48;;;;;;;5.35;3.90;;;18.00;99.90;;;;;;3058585;19;20002;-70
2022/07/31 03:51:49;;;;;;;5.97;4.18;;;17.70;99.90;;;;;;3058624;19;20006;-68
2022/07/31 03:52:54;;;;;;;4.72;3.88;;;17.90;99.90;;;;;;3058407;19;20031;-67
2022/07/31 03:53:55;;;;;;;6.57;4.22;;;18.00;99.90;;;;;;3058513;19;20038;-67
2022/07/31 03:54:59;;;;;;;6.30;4.32;;;18.00;99.90;;;;;;3057582;19;20022;-67
2022/07/31 03:56:03;;;;;;;6.80;4.20;;;18.00;99.90;;;;;;3058368;19;20409;-68
2022/07/31 03:57:09;;;;;;;6.45;4.00;;;17.90;99.90;;;;;;3058319;19;20019;-67
2022/07/31 03:58:11;;;;;;;7.30;4.45;;;18.00;99.90;;;;;;3058525;19;20006;-67
2022/07/31 03:59:16;;;;;;;5.88;4.30;;;17.90;99.90;;;;;;3058377;19;20011;-68
2022/07/31 04:00:25;;;;;;;6.32;4.30;;;18.00;99.90;;;;;;3058444;19;20015;-67
2022/07/31 04:01:27;;;;;;;5.15;4.22;;;17.90;99.90;;;;;;3058265;19;20015;-67
2022/07/31 04:02:31;;;;;;;7.55;4.45;;;15.50;99.90;;;;;;3058560;19;20032;-67
2022/07/31 04:03:32;;;;;;;6.45;4.45;;;17.90;99.90;;;;;;3058272;19;20014;-67
2022/07/31 04:04:36;;;;;;;4.82;3.70;;;18.10;99.90;;;;;;3058596;19;20006;-67
2022/07/31 04:05:38;;;;;;;6.72;4.35;;;17.90;99.90;;;;;;3058319;19;20031;-67
2022/07/31 04:06:44;;;;;;;;;;;18.10;99.90;;;;;;3059025;19;20030;-67
2022/07/31 04:07:45;;;;;;;7.25;4.40;;;17.90;99.90;;;;;;3058357;19;19919;-67
2022/07/31 04:08:49;;;;;;;4.30;3.70;;;18.10;99.90;;;;;;3057257;19;20009;-67
2022/07/31 04:09:51;;;;;;;5.22;4.10;;;18.00;99.90;;;;;;3058503;19;20014;-67
2022/07/31 04:10:55;;;;;;;5.00;4.20;;;17.80;99.90;;;;;;3058564;19;20003;-69
2022/07/31 04:11:56;;;;;;;5.38;4.03;;;17.90;99.90;;;;;;3058362;19;20499;-68
2022/07/31 04:13:01;;;;;;;7.70;4.35;;;17.90;99.90;;;;;;3058809;19;20464;-67
2022/07/31 04:14:02;;;;;;;6.00;4.10;;;17.90;99.90;;;;;;3058235;19;20034;-68
2022/07/31 04:15:07;;;;;;;6.43;4.07;;;18.00;99.90;;;;;;3058119;19;20014;-67
2022/07/31 04:16:09;;;;;;;8.85;4.30;;;18.10;99.90;;;;;;3058115;19;20042;-67
2022/07/31 04:17:13;;;;;;;7.40;4.10;;;18.00;99.90;;;;;;3057693;19;20014;-68
2022/07/31 04:18:14;;;;;;;6.22;4.53;;;17.90;99.90;;;;;;3058080;19;20025;-67
2022/07/31 04:19:18;;;;;;;7.50;4.18;;;17.80;99.90;;;;;;3058292;19;20006;-67
2022/07/31 04:20:22;;;;;;;5.85;4.00;;;18.00;99.90;;;;;;3058143;19;20027;-67
2022/07/31 04:21:23;;;;;;;7.18;4.07;;;18.10;99.90;;;;;;3058203;19;20006;-68
2022/07/31 04:22:30;;;;;;;9.07;4.40;;;18.10;99.90;;;;;;3058069;19;20014;-67
2022/07/31 04:23:31;;;;;;;6.35;4.00;;;18.00;99.90;;;;;;3058135;19;20014;-67
2022/07/31 04:24:35;;;;;;;6.65;4.18;;;17.90;99.90;;;;;;3057589;19;20070;-67
2022/07/31 04:25:39;;;;;;;6.35;4.15;;;17.90;99.90;;;;;;3057909;19;20016;-67
2022/07/31 04:26:40;;;;;;;5.57;4.10;;;18.10;99.90;;;;;;3058277;19;20010;-68
2022/07/31 04:27:44;;;;;;;6.60;4.40;;;18.00;99.90;;;;;;3058192;19;20006;-67
2022/07/31 04:28:45;;;;;;;8.70;4.57;;;17.80;99.90;;;;;;3058343;19;20022;-67
2022/07/31 04:29:50;;;;;;;7.63;3.95;;;17.90;99.90;;;;;;3058243;19;20030;-67
2022/07/31 04:30:51;;;;;;;5.45;4.20;;;17.80;99.90;;;;;;3058013;19;20011;-68
2022/07/31 04:31:55;;;;;;;;;;;17.90;99.90;;;;;;3058569;19;20401;-67
2022/07/31 04:32:58;;;;;;;7.13;4.22;;;17.80;99.90;;;;;;3057845;19;19931;-67
2022/07/31 04:34:01;;;;;;;5.72;4.38;;;17.70;99.90;;;;;;3058126;19;19998;-67
2022/07/31 04:35:04;;;;;;;6.15;4.20;;;17.80;99.90;;;;;;3057529;19;20396;-67
2022/07/31 04:36:08;;;;;;;7.00;3.90;;;17.90;99.90;;;;;;3058017;19;20018;-68
2022/07/31 04:37:09;;;;;;;5.57;4.05;;;17.80;99.90;;;;;;3057856;19;20014;-67
2022/07/31 04:38:16;;;;;;;7.65;4.18;;;17.90;99.90;;;;;;3056999;19;20379;-67
2022/07/31 04:39:17;;;;;;;6.07;4.28;;;18.00;99.90;;;;;;3057463;19;20002;-67
2022/07/31 04:40:21;;;;;;;6.22;3.90;;;17.90;99.90;;;;;;3058045;19;20016;-68
2022/07/31 04:41:22;;;;;;;6.80;4.18;;;17.90;99.90;;;;;;3056817;19;20006;-67
2022/07/31 04:42:26;;;;;;;5.70;4.15;;;17.80;99.90;;;;;;3056511;19;20002;-67
2022/07/31 04:43:28;;;;;;;6.28;3.83;;;17.70;99.90;;;;;;3058015;19;20007;-67
2022/07/31 04:44:32;;;;;;;8.00;4.32;;;18.00;99.90;;;;;;3057909;19;20027;-67
2022/07/31 04:45:33;;;;;;;6.28;4.28;;;17.90;99.90;;;;;;3057838;19;20190;-67
2022/07/31 04:46:37;;;;;;;6.53;4.32;;;17.90;99.90;;;;;;3057819;19;20022;-67
2022/07/31 04:47:38;;;;;;;6.65;4.35;;;17.70;99.90;;;;;;3057992;19;20463;-68
2022/07/31 04:48:42;;;;;;;5.70;4.13;;;18.00;99.90;;;;;;3057715;19;20349;-68
2022/07/31 04:49:43;;;;;;;9.13;4.60;;;17.80;99.90;;;;;;3057965;19;20038;-67
2022/07/31 04:50:47;;;;;;;7.10;4.63;;;17.90;99.90;;;;;;3057855;19;20002;-67
2022/07/31 04:51:48;;;;;;;5.65;4.20;;;17.90;99.90;;;;;;3057819;19;20361;-67
2022/07/31 04:52:52;;;;;;;5.47;4.28;;;18.00;99.90;;;;;;3057732;19;20011;-67
2022/07/31 04:53:56;;;;;;;8.23;4.47;;;18.00;99.90;;;;;;3058154;19;19998;-67
2022/07/31 04:55:00;;;;;;;8.10;4.45;;;18.00;99.90;;;;;;3057215;19;20010;-67
2022/07/31 04:57:32;;;;;;;8.77;4.63;;;18.20;99.90;;;;;;3056012;19;20014;-67
2022/07/31 04:58:34;;;;;;;6.80;4.32;;;18.00;99.90;;;;;;3056900;19;20017;-68
2022/07/31 04:59:37;;;;;;;;;;;18.80;99.90;;;;;;3058127;19;20028;-67
2022/07/31 05:00:39;;;;;;;5.78;4.43;;;18.10;99.90;;;;;;3057721;19;19914;-68
2022/07/31 05:01:44;;;;;;;5.20;4.15;;;18.20;99.90;;;;;;3057724;19;20024;-67
2022/07/31 05:02:45;;;;;;;7.38;4.20;;;18.10;99.90;;;;;;3057696;19;20014;-67
2022/07/31 05:03:49;;;;;;;5.93;4.70;;;18.10;99.90;;;;;;3057302;19;20015;-68
2022/07/31 05:04:51;;;;;;;5.80;4.47;;;18.10;99.90;;;;;;3057843;19;20006;-68
2022/07/31 05:05:55;;;;;;;6.15;4.53;;;18.00;99.90;;;;;;3057507;19;20007;-67
2022/07/31 05:06:56;;;;;;;6.72;4.78;;;18.00;99.90;;;;;;3056741;19;20015;-68
2022/07/31 05:08:00;;;;;;;7.65;4.50;;;18.30;99.90;;;;;;3056884;19;20014;-67
2022/07/31 05:09:05;;;;;;;9.15;4.78;;;18.20;99.90;;;;;;3057894;19;20007;-67
2022/07/31 05:11:21;;;;;;;9.57;4.57;;;18.50;99.90;;;;;;3057453;19;20042;-68
2022/07/31 05:11:32;;;;;;;7.10;4.72;;;18.50;99.90;;;;;;3057415;19;20038;-68
2022/07/31 05:12:36;;;;;;;6.15;4.45;;;17.40;99.90;;;;;;3057728;19;20062;-67
2022/07/31 05:13:38;;;;;;;6.32;4.93;;;18.20;99.90;;;;;;3057725;19;20006;-67
2022/07/31 05:14:42;;;;;;;8.18;4.65;;;18.30;99.90;;;;;;3057875;19;20018;-68
2022/07/31 05:15:43;;;;;;;5.25;4.43;;;18.40;99.90;;;;;;3056919;19;20092;-69
2022/07/31 05:16:48;;;;;;;7.70;4.85;;;18.50;99.90;;;;;;3057247;19;20507;-68
2022/07/31 05:17:52;;;;;;;7.43;4.60;;;18.40;99.90;;;;;;3057664;19;20353;-68
2022/07/31 05:18:54;;;;;;;10.15;4.80;;;18.30;99.90;;;;;;3057860;19;20475;-67
2022/07/31 05:19:58;;;;;;;7.15;5.00;;;18.40;99.90;;;;;;3057371;19;20019;-67
2022/07/31 05:20:59;;;;;;;7.50;4.82;;;18.50;99.90;;;;;;3058961;19;20002;-67
2022/07/31 05:22:03;;;;;;;7.15;4.88;;;18.40;99.90;;;;;;3060480;19;20010;-68
2022/07/31 05:23:05;;;;;;;7.75;5.07;;;18.50;99.90;;;;;;3060802;19;20007;-67
2022/07/31 05:24:12;;;;;;;6.93;4.88;;;18.40;99.90;;;;;;3060460;19;20002;-68
2022/07/31 05:25:13;;;;;;;8.60;5.28;;;18.40;99.90;;;;;;3060538;19;20070;-67
2022/07/31 05:26:18;;;;;;;6.65;5.22;;;18.90;99.90;;;;;;3060586;19;20027;-67
2022/07/31 05:27:22;;;;;;;7.72;5.47;;;18.30;99.90;;;;;;3060444;19;20014;-67
2022/07/31 05:28:24;;;;;;;7.63;5.30;;;18.40;99.90;;;;;;3060334;19;20440;-68
2022/07/31 05:29:28;;;;;;;7.18;5.45;;;18.60;99.90;;;;;;3059586;19;20389;-68
2022/07/31 05:30:29;;;;;;;8.02;5.65;;;18.30;99.90;;;;;;3059773;19;20027;-68
2022/07/31 05:31:33;;;;;;;8.95;5.50;;;18.10;99.90;;;;;;3060566;19;20323;-68
2022/07/31 05:32:37;;;;;;;9.35;5.47;;;18.30;99.90;;;;;;3059450;19;20014;-67
2022/07/31 05:33:39;;;;;;;8.90;5.40;;;18.40;99.90;;;;;;3060041;19;20505;-67
2022/07/31 05:34:43;;;;;;;8.93;5.88;;;18.30;99.90;;;;;;3060884;19;20015;-68